Time;durP1;ratioP1;P1;durP2;ratioP2;P2;SDS_P1;SDS_P2;PMS_P1;PMS_P2;Temp;Humidity;BMP_temperature;BMP_pressure;BME280_temperature;BME280_humidity;BME280_pressure;Samples;Min_cycle;Max_cycle;Signal;HPM_P1;HPM_P2
2022/04/12 00:01:25;;;;;;;;;;;;;;;14.08;29.52;99526.28;4467669;32;34950;-82
2022/04/12 00:03:53;;;;;;;;;;;;;;;13.97;29.79;99530.56;4456382;32;33756;-82
2022/04/12 00:06:20;;;;;;;;;;;;;;;13.86;30.02;99521.81;4460665;32;33754;-82
2022/04/12 00:08:47;;;;;;;;;;;;;;;13.99;30.52;99526.25;4452172;32;35348;-81
2022/04/12 00:11:15;;;;;;;;;;;;;;;13.92;31.06;99527.09;4451985;32;34494;-80
2022/04/12 00:13:42;;;;;;;;;;;;;;;13.78;30.76;99532.22;4455538;32;33558;-81
2022/04/12 00:16:09;;;;;;;;;;;;;;;13.94;30.66;99535.78;4467718;32;34247;-80
2022/04/12 00:21:23;;;;;;;;;;;;;;;13.96;30.96;99517.53;4467433;32;34558;-81
2022/04/12 00:23:50;;;;;;;;;;;;;;;13.95;31.10;99524.50;4460393;32;33492;-81
2022/04/12 00:26:17;;;;;;;;;;;;;;;13.86;30.50;99519.22;4453648;32;34172;-81
2022/04/12 00:28:44;;;;;;;;;;;;;;;13.82;30.35;99514.84;4465285;32;34406;-81
2022/04/12 00:31:12;;;;;;;;;;;;;;;13.79;30.24;99509.66;4463112;32;34161;-80
2022/04/12 00:33:40;;;;;;;;;;;;;;;14.00;29.81;99504.53;4461284;32;33703;-81
2022/04/12 00:36:09;;;;;;;;;;;;;;;14.10;29.15;99506.31;4467367;32;33738;-81
2022/04/12 00:38:38;;;;;;;;;;;;;;;13.94;30.21;99498.41;4452017;32;35237;-81
2022/04/12 00:41:05;;;;;;;;;;;;;;;14.07;29.91;99505.44;4451999;32;34473;-81
2022/04/12 00:43:35;;;;;;;;;;;;;;;13.94;29.66;99496.69;4453753;32;34478;-81
2022/04/12 00:46:02;;;;;;;;;;;;;;;14.00;29.25;99494.09;4467477;32;34332;-84
2022/04/12 00:48:31;;;;;;;;;;;;;;;14.04;28.82;99498.47;4453483;32;34212;-82
2022/04/12 00:50:59;;;;;;;;;;;;;;;13.93;28.90;99501.88;4453722;32;33967;-81
2022/04/12 00:53:26;;;;;;;;;;;;;;;13.88;29.46;99510.56;4466820;32;33621;-81
2022/04/12 00:55:54;;;;;;;;;;;;;;;13.93;29.73;99505.34;4467386;32;34171;-81
2022/04/12 00:58:21;;;;;;;;;;;;;;;14.03;29.09;99499.34;4467332;32;34685;-81
2022/04/12 01:00:49;;;;;;;;;;;;;;;13.72;29.42;99507.88;4453430;32;35354;-82
2022/04/12 01:03:16;;;;;;;;;;;;;;;13.91;29.11;99507.09;4467067;32;33459;-80
2022/04/12 01:05:44;;;;;;;;;;;;;;;14.04;29.26;99497.59;4461612;32;34340;-81
2022/04/12 01:08:11;;;;;;;;;;;;;;;13.87;29.47;99508.81;4466726;32;34242;-82
2022/04/12 01:10:39;;;;;;;;;;;;;;;14.26;28.91;99498.53;4465020;32;34428;-81
2022/04/12 01:13:06;;;;;;;;;;;;;;;14.10;29.15;99493.28;4463172;32;33080;-82
2022/04/12 01:15:35;;;;;;;;;;;;;;;14.17;29.05;99498.50;4464681;32;34366;-85
2022/04/12 01:18:02;;;;;;;;;;;;;;;14.33;29.02;99492.50;4452681;32;33737;-82
2022/04/12 01:20:30;;;;;;;;;;;;;;;14.12;29.59;99498.47;4452321;32;34569;-82
2022/04/12 01:23:10;;;;;;;;;;;;;;;14.04;29.41;99495.84;4466675;32;34591;-83
2022/04/12 01:25:38;;;;;;;;;;;;;;;13.95;29.40;99501.03;4462712;32;34353;-81
2022/04/12 01:28:05;;;;;;;;;;;;;;;14.09;29.19;99494.16;4466573;32;34435;-82
2022/04/12 01:30:33;;;;;;;;;;;;;;;14.19;29.27;99489.81;4452421;32;34499;-82
2022/04/12 01:33:00;;;;;;;;;;;;;;;14.23;29.21;99490.72;4466529;32;33667;-81
2022/04/12 01:35:27;;;;;;;;;;;;;;;14.04;29.42;99488.03;4453298;32;35247;-82
2022/04/12 01:37:54;;;;;;;;;;;;;;;14.12;29.24;99485.44;4463955;32;34090;-82
2022/04/12 01:40:22;;;;;;;;;;;;;;;14.10;29.38;99487.19;4443558;32;34457;-82
2022/04/12 01:42:52;;;;;;;;;;;;;;;14.09;29.47;99491.53;4468626;32;33471;-81
2022/04/12 01:45:24;;;;;;;;;;;;;;;14.00;29.45;99488.03;4455612;32;34355;-82
2022/04/12 01:47:52;;;;;;;;;;;;;;;13.90;29.52;99491.44;4439378;32;34538;-83
2022/04/12 01:50:19;;;;;;;;;;;;;;;13.75;29.23;99497.44;4452838;32;34508;-81
2022/04/12 01:52:47;;;;;;;;;;;;;;;13.88;29.13;99496.66;4453035;32;33714;-82
2022/04/12 01:55:14;;;;;;;;;;;;;;;13.77;29.87;99491.37;4449846;32;34224;-81
2022/04/12 01:57:42;;;;;;;;;;;;;;;13.81;29.51;99497.50;4468172;32;34417;-80
2022/04/12 02:00:09;;;;;;;;;;;;;;;13.85;29.15;99494.03;4454547;32;34439;-82
2022/04/12 02:02:38;;;;;;;;;;;;;;;13.77;29.12;99495.72;4449043;32;33726;-81
2022/04/12 02:05:05;;;;;;;;;;;;;;;13.81;29.24;99494.88;4463656;32;35059;-80
2022/04/12 02:07:33;;;;;;;;;;;;;;;13.80;29.39;99493.16;4453873;32;33903;-82
2022/04/12 02:10:00;;;;;;;;;;;;;;;13.79;29.57;99501.84;4457183;32;34562;-83
2022/04/12 02:12:27;;;;;;;;;;;;;;;13.69;29.44;99495.69;4450832;32;34120;-83
2022/04/12 02:14:56;;;;;;;;;;;;;;;13.74;29.47;99506.13;4446728;32;33949;-83
2022/04/12 02:17:23;;;;;;;;;;;;;;;13.77;29.69;99495.72;4463530;32;34061;-83
2022/04/12 02:19:50;;;;;;;;;;;;;;;13.73;29.86;99496.59;4453232;32;34307;-83
2022/04/12 02:22:20;;;;;;;;;;;;;;;13.77;29.81;99490.53;4456765;32;34360;-82
2022/04/12 02:24:47;;;;;;;;;;;;;;;13.60;29.98;99486.09;4466207;32;33975;-82
2022/04/12 02:27:14;;;;;;;;;;;;;;;13.77;29.60;99495.72;4466838;32;35027;-82
2022/04/12 02:29:42;;;;;;;;;;;;;;;13.81;29.52;99492.28;4457198;32;34593;-83
2022/04/12 02:32:09;;;;;;;;;;;;;;;13.65;29.81;99486.12;4461258;32;34543;-81
2022/04/12 02:34:36;;;;;;;;;;;;;;;13.69;29.83;99487.00;4464604;32;34844;-82
2022/04/12 02:37:03;;;;;;;;;;;;;;;13.65;29.82;99488.72;4459583;32;33976;-82
2022/04/12 02:39:31;;;;;;;;;;;;;;;13.69;29.82;99487.88;4463658;32;35104;-83
2022/04/12 02:41:58;;;;;;;;;;;;;;;13.62;30.28;99500.00;4467079;32;34345;-82
2022/04/12 02:44:25;;;;;;;;;;;;;;;13.73;29.98;99492.25;4461961;32;34037;-83
2022/04/12 02:46:52;;;;;;;;;;;;;;;13.63;30.05;99493.91;4438837;32;34143;-82
2022/04/12 02:49:20;;;;;;;;;;;;;;;13.74;29.88;99491.37;4453374;32;34508;-83
2022/04/12 02:51:47;;;;;;;;;;;;;;;13.81;29.77;99498.34;4462252;32;34281;-82
2022/04/12 02:54:14;;;;;;;;;;;;;;;13.51;29.96;99499.06;4468316;32;34114;-83
2022/04/12 02:56:42;;;;;;;;;;;;;;;13.48;29.81;99493.81;4468063;32;34225;-82
2022/04/12 02:59:09;;;;;;;;;;;;;;;13.55;29.55;99498.22;4462609;32;33958;-83
2022/04/12 03:01:36;;;;;;;;;;;;;;;13.42;29.54;99505.97;4447642;32;33767;-82
2022/04/12 03:04:04;;;;;;;;;;;;;;;13.45;29.23;99500.75;4467966;32;34889;-81
2022/04/12 03:06:31;;;;;;;;;;;;;;;13.47;29.24;99510.31;4453999;32;34976;-83
2022/04/12 03:08:58;;;;;;;;;;;;;;;13.32;29.67;99512.81;4468056;32;34435;-82
2022/04/12 03:11:26;;;;;;;;;;;;;;;13.18;30.31;99514.41;4459537;32;33738;-83
2022/04/12 03:13:54;;;;;;;;;;;;;;;13.09;30.25;99516.09;4452409;32;34189;-82
2022/04/12 03:16:21;;;;;;;;;;;;;;;13.54;29.46;99504.28;4452403;32;34469;-82
2022/04/12 03:18:49;;;;;;;;;;;;;;;13.28;29.86;99506.72;4452449;32;34516;-82
2022/04/12 03:21:16;;;;;;;;;;;;;;;13.33;30.03;99510.25;4458690;32;33213;-82
2022/04/12 03:23:43;;;;;;;;;;;;;;;13.34;29.96;99505.91;4460861;32;34773;-83
2022/04/12 03:26:11;;;;;;;;;;;;;;;13.31;30.23;99506.75;4455943;32;35381;-83
2022/04/12 03:28:38;;;;;;;;;;;;;;;13.43;29.93;99508.56;4452766;32;34567;-82
2022/04/12 03:31:05;;;;;;;;;;;;;;;13.38;30.13;99505.06;4455086;32;34406;-82
2022/04/12 03:33:33;;;;;;;;;;;;;;;13.21;30.60;99504.03;4447862;32;32978;-83
2022/04/12 03:36:00;;;;;;;;;;;;;;;13.11;30.66;99509.16;4453680;32;35303;-82
2022/04/12 03:38:27;;;;;;;;;;;;;;;13.18;30.33;99514.41;4456478;32;34368;-82
2022/04/12 03:40:58;;;;;;;;;;;;;;;13.22;30.62;99516.16;4465695;32;34292;-82
2022/04/12 03:43:25;;;;;;;;;;;;;;;13.35;30.12;99518.06;4455222;32;34663;-82
2022/04/12 03:45:52;;;;;;;;;;;;;;;13.21;30.40;99514.44;4456159;32;34152;-82
2022/04/12 03:48:20;;;;;;;;;;;;;;;13.18;30.58;99519.63;4461477;32;34325;-82
2022/04/12 03:50:47;;;;;;;;;;;;;;;13.13;30.59;99519.59;4468267;32;33463;-82
2022/04/12 03:53:14;;;;;;;;;;;;;;;13.17;30.48;99525.69;4464105;32;34898;-83
2022/04/12 03:55:46;;;;;;;;;;;;;;;13.21;30.53;99517.03;4458012;32;34101;-82
2022/04/12 03:58:19;;;;;;;;;;;;;;;13.20;30.35;99517.91;4459995;32;34530;-82
2022/04/12 04:00:52;;;;;;;;;;;;;;;13.21;30.48;99527.44;4467875;32;33500;-82
2022/04/12 04:03:20;;;;;;;;;;;;;;;13.28;30.15;99524.06;4452961;32;35018;-82
2022/04/12 04:05:47;;;;;;;;;;;;;;;13.35;30.04;99528.47;4465091;32;34643;-81
2022/04/12 04:08:14;;;;;;;;;;;;;;;13.33;30.10;99525.88;4465115;32;34396;-83
2022/04/12 04:10:41;;;;;;;;;;;;;;;13.22;30.49;99534.41;4466805;32;33597;-82
2022/04/12 04:13:08;;;;;;;;;;;;;;;13.25;30.39;99526.66;4454991;32;34038;-83
2022/04/12 04:15:36;;;;;;;;;;;;;;;13.29;30.46;99528.41;4462446;32;35226;-82
2022/04/12 04:18:03;;;;;;;;;;;;;;;13.25;30.77;99526.66;4464132;32;34654;-82
2022/04/12 04:20:31;;;;;;;;;;;;;;;13.30;30.78;99525.84;4459273;32;33761;-82
2022/04/12 04:22:58;;;;;;;;;;;;;;;12.99;31.18;99524.66;4452924;32;34250;-83
2022/04/12 04:25:25;;;;;;;;;;;;;;;13.27;30.87;99531.03;4457489;32;34226;-83
2022/04/12 04:27:52;;;;;;;;;;;;;;;13.29;30.93;99528.41;4474452;32;34455;-82
2022/04/12 04:30:20;;;;;;;;;;;;;;;13.50;30.88;99532.91;4453839;32;34509;-82
2022/04/12 04:32:48;;;;;;;;;;;;;;;13.47;30.86;99528.56;4459963;32;34556;-83
2022/04/12 04:35:15;;;;;;;;;;;;;;;13.65;30.57;99532.16;4453679;32;34209;-82
2022/04/12 04:37:43;;;;;;;;;;;;;;;13.74;30.64;99524.38;4460971;32;33564;-82
2022/04/12 04:40:20;;;;;;;;;;;;;;;13.91;30.60;99527.09;4459035;32;33751;-82
2022/04/12 04:42:49;;;;;;;;;;;;;;;13.85;30.68;99520.09;4450526;32;35036;-82
2022/04/12 04:45:16;;;;;;;;;;;;;;;13.92;30.60;99526.22;4466280;32;34434;-83
2022/04/12 04:47:50;;;;;;;;;;;;;;;14.27;30.46;99529.84;4467799;32;35264;-82
2022/04/12 04:50:21;;;;;;;;;;;;;;;14.75;30.04;99533.47;4451902;32;33686;-82
2022/04/12 04:52:48;;;;;;;;;;;;;;;15.07;29.20;99532.62;4452105;32;33615;-83
2022/04/12 04:55:16;;;;;;;;;;;;;;;15.38;28.90;99535.25;4464885;32;34807;-83
2022/04/12 04:57:44;;;;;;;;;;;;;;;16.01;28.39;99536.87;4465809;32;34196;-83
2022/04/12 05:00:15;;;;;;;;;;;;;;;16.27;27.70;99535.94;4449995;32;33340;-82
2022/04/12 05:02:44;;;;;;;;;;;;;;;16.17;28.00;99547.28;4458506;32;34652;-82
2022/04/12 05:05:11;;;;;;;;;;;;;;;16.38;27.72;99544.59;4447575;32;34759;-82
2022/04/12 05:07:42;;;;;;;;;;;;;;;16.87;26.68;99543.50;4437911;32;34994;-84
2022/04/12 05:10:12;;;;;;;;;;;;;;;16.89;25.63;99553.06;4435743;32;866643;-83
2022/04/12 05:12:39;;;;;;;;;;;;;;;16.72;26.12;99549.66;4457808;32;35005;-84
2022/04/12 05:15:07;;;;;;;;;;;;;;;16.35;25.89;99549.84;4465876;32;34425;-85
2022/04/12 05:17:34;;;;;;;;;;;;;;;16.87;25.83;99562.69;4456859;32;34508;-84
2022/04/12 05:20:01;;;;;;;;;;;;;;;17.75;24.96;99549.75;4451456;32;34327;-83
2022/04/12 05:22:28;;;;;;;;;;;;;;;17.50;24.69;99556.94;4451676;32;34078;-84
2022/04/12 05:24:56;;;;;;;;;;;;;;;17.01;24.94;99558.22;4451170;32;35219;-83
2022/04/12 05:27:23;;;;;;;;;;;;;;;17.49;24.52;99558.69;4451590;32;34733;-83
2022/04/12 05:29:50;;;;;;;;;;;;;;;18.18;23.88;99557.13;4451440;32;33332;-82
2022/04/12 05:32:18;;;;;;;;;;;;;;;18.15;23.63;99559.81;4454615;32;34343;-82
2022/04/12 05:34:46;;;;;;;;;;;;;;;18.30;23.22;99554.38;4462560;32;34380;-83
2022/04/12 05:37:13;;;;;;;;;;;;;;;18.40;23.19;99558.63;4451677;32;33771;-83
2022/04/12 05:39:41;;;;;;;;;;;;;;;18.24;23.41;99565.81;4451224;32;33222;-84
2022/04/12 05:42:08;;;;;;;;;;;;;;;18.17;23.12;99565.91;4455300;32;33669;-82
2022/04/12 05:44:35;;;;;;;;;;;;;;;18.13;23.40;99572.06;4464748;32;34113;-82
2022/04/12 05:47:05;;;;;;;;;;;;;;;17.95;23.83;99571.38;4459384;32;34154;-82
2022/04/12 05:49:32;;;;;;;;;;;;;;;18.13;24.00;99566.84;4464598;32;33932;-82
2022/04/12 05:52:00;;;;;;;;;;;;;;;17.96;24.01;99572.28;4463077;32;34940;-83
2022/04/12 05:54:27;;;;;;;;;;;;;;;17.82;24.52;99584.66;4453975;32;34862;-83
2022/04/12 05:56:54;;;;;;;;;;;;;;;17.01;24.88;99579.19;4451657;32;34530;-82
2022/04/12 05:59:22;;;;;;;;;;;;;;;16.75;25.81;99584.56;4450923;32;34562;-82
2022/04/12 06:01:50;;;;;;;;;;;;;;;15.28;26.63;99587.50;4450863;32;34022;-83
2022/04/12 06:04:17;;;;;;;;;;;;;;;15.33;27.05;99584.88;4453130;32;34254;-83
2022/04/12 06:06:45;;;;;;;;;;;;;;;15.15;27.04;99596.19;4466462;32;34552;-83
2022/04/12 06:09:12;;;;;;;;;;;;;;;14.73;27.96;99592.62;4464653;32;34231;-82
2022/04/12 06:11:39;;;;;;;;;;;;;;;13.39;29.59;99591.00;4466426;32;33877;-82
2022/04/12 06:14:07;;;;;;;;;;;;;;;13.69;29.36;99599.91;4465210;32;34100;-83
2022/04/12 06:16:34;;;;;;;;;;;;;;;14.40;28.77;99593.38;4466494;32;35018;-83
2022/04/12 06:19:01;;;;;;;;;;;;;;;15.00;28.09;99599.66;4466304;32;34025;-82
2022/04/12 06:21:28;;;;;;;;;;;;;;;13.87;29.74;99612.22;4466342;32;35095;-83
2022/04/12 06:23:56;;;;;;;;;;;;;;;13.86;29.50;99616.56;4430954;32;33875;-85
2022/04/12 06:26:23;;;;;;;;;;;;;;;14.29;30.11;99611.56;4467372;32;35059;-83
2022/04/12 06:28:50;;;;;;;;;;;;;;;14.70;28.59;99610.00;4467152;32;33493;-83
2022/04/12 06:31:17;;;;;;;;;;;;;;;14.71;28.57;99609.16;4466094;32;33715;-82
2022/04/12 06:33:45;;;;;;;;;;;;;;;14.69;28.80;99605.66;4453620;32;33838;-81
2022/04/12 06:36:12;;;;;;;;;;;;;;;14.02;29.58;99617.50;4467825;32;34262;-82
2022/04/12 06:38:39;;;;;;;;;;;;;;;13.68;30.35;99621.63;4468122;32;33610;-83
2022/04/12 06:41:07;;;;;;;;;;;;;;;13.88;30.14;99616.56;4454984;32;34219;-82
2022/04/12 06:43:34;;;;;;;;;;;;;;;14.25;29.73;99616.78;4452987;32;35331;-82
2022/04/12 06:46:02;;;;;;;;;;;;;;;14.24;29.52;99622.81;4452561;32;35281;-83
2022/04/12 06:48:30;;;;;;;;;;;;;;;14.22;29.52;99620.22;4465521;32;33499;-83
2022/04/12 06:51:02;;;;;;;;;;;;;;;13.63;30.06;99624.16;4468112;32;34970;-81
2022/04/12 06:53:29;;;;;;;;;;;;;;;13.82;30.40;99622.56;4468042;32;34431;-82
2022/04/12 06:55:57;;;;;;;;;;;;;;;13.71;31.54;99625.97;4468257;32;34224;-83
2022/04/12 06:58:25;;;;;;;;;;;;;;;14.19;30.37;99614.13;4455863;32;32860;-82
2022/04/12 07:00:53;;;;;;;;;;;;;;;14.40;29.55;99614.22;4452722;32;33781;-87
2022/04/12 07:03:21;;;;;;;;;;;;;;;14.07;29.55;99620.13;4452866;32;35077;-82
2022/04/12 07:05:49;;;;;;;;;;;;;;;13.92;29.53;99625.25;4452354;32;34409;-83
2022/04/12 07:08:16;;;;;;;;;;;;;;;14.10;30.06;99625.38;4463328;32;33479;-82
2022/04/12 07:10:48;;;;;;;;;;;;;;;14.63;28.56;99616.09;4468262;32;35673;-82
2022/04/12 07:13:16;;;;;;;;;;;;;;;14.92;29.14;99609.19;4468061;32;34496;-82
2022/04/12 07:15:43;;;;;;;;;;;;;;;14.96;28.94;99621.38;4466096;32;34926;-82
2022/04/12 07:18:11;;;;;;;;;;;;;;;15.09;28.78;99627.53;4453963;32;33792;-82
2022/04/12 07:20:38;;;;;;;;;;;;;;;14.95;28.27;99618.78;4468200;32;33944;-81
2022/04/12 07:23:05;;;;;;;;;;;;;;;15.11;28.09;99619.69;4454018;32;34009;-81
2022/04/12 07:25:32;;;;;;;;;;;;;;;14.23;29.69;99623.69;4454135;32;34491;-84
2022/04/12 07:28:00;;;;;;;;;;;;;;;14.75;28.99;99629.19;4460883;32;33600;-80
2022/04/12 07:30:27;;;;;;;;;;;;;;;15.43;29.08;99625.81;4468055;32;33562;-81
2022/04/12 07:33:15;;;;;;;;;;;;;;;15.51;28.93;99626.69;4467798;32;35249;-82
2022/04/12 07:35:42;;;;;;;;;;;;;;;16.37;27.55;99621.38;4467770;32;34857;-81
2022/04/12 07:38:10;;;;;;;;;;;;;;;16.39;27.12;99627.44;4467198;32;33937;-81
2022/04/12 07:40:37;;;;;;;;;;;;;;;16.73;26.63;99622.06;4467944;32;34237;-83
2022/04/12 07:43:04;;;;;;;;;;;;;;;16.07;27.56;99627.56;4462498;32;34374;-83
2022/04/12 07:45:32;;;;;;;;;;;;;;;16.75;27.54;99629.09;4452302;32;34635;-82
2022/04/12 07:47:59;;;;;;;;;;;;;;;17.34;27.25;99633.97;4452797;32;33629;-87
2022/04/12 07:50:27;;;;;;;;;;;;;;;17.00;26.01;99634.19;4452112;32;34918;-83
2022/04/12 07:52:54;;;;;;;;;;;;;;;16.41;26.49;99633.56;4454640;32;34356;-83
2022/04/12 07:55:21;;;;;;;;;;;;;;;17.60;25.79;99633.78;4467844;32;34456;-82
2022/04/12 07:57:49;;;;;;;;;;;;;;;17.55;25.75;99635.56;4452302;32;33443;-81
2022/04/12 08:00:16;;;;;;;;;;;;;;;17.90;25.00;99630.91;4456551;32;33913;-83
2022/04/12 08:02:43;;;;;;;;;;;;;;;17.24;25.26;99627.94;4438290;32;34518;-82
2022/04/12 08:05:10;;;;;;;;;;;;;;;18.01;24.27;99633.44;4451970;32;34086;-82
2022/04/12 08:07:39;;;;;;;;;;;;;;;18.32;24.64;99638.34;4452268;32;34218;-82
2022/04/12 08:10:07;;;;;;;;;;;;;;;16.43;26.08;99651.88;4458741;32;33834;-81
2022/04/12 08:12:34;;;;;;;;;;;;;;;16.41;25.08;99644.03;4467811;32;33955;-83
2022/04/12 08:15:05;;;;;;;;;;;;;;;16.20;23.83;99642.34;4467810;32;34825;-82
2022/04/12 08:17:33;;;;;;;;;;;;;;;15.77;26.30;99649.38;4466600;32;33335;-83
2022/04/12 08:20:00;;;;;;;;;;;;;;;15.80;25.59;99645.03;4452254;32;34598;-82
2022/04/12 08:22:28;;;;;;;;;;;;;;;16.62;24.59;99647.44;4452238;32;35097;-83
2022/04/12 08:25:15;;;;;;;;;;;;;;;16.55;24.43;99646.56;4452193;32;34165;-83
2022/04/12 08:27:43;;;;;;;;;;;;;;;16.27;25.36;99653.66;4453526;32;33875;-83
2022/04/12 08:30:10;;;;;;;;;;;;;;;16.90;24.67;99654.34;4467603;32;34146;-83
2022/04/12 08:32:37;;;;;;;;;;;;;;;15.84;25.33;99656.34;4467567;32;35189;-82
2022/04/12 08:35:05;;;;;;;;;;;;;;;16.60;24.28;99654.44;4465557;32;34575;-81
2022/04/12 08:37:32;;;;;;;;;;;;;;;16.01;24.78;99649.34;4463063;32;33806;-83
2022/04/12 08:40:00;;;;;;;;;;;;;;;15.27;25.59;99652.81;4458926;32;34031;-84
2022/04/12 08:42:27;;;;;;;;;;;;;;;17.01;24.96;99651.66;4460431;32;34426;-82
2022/04/12 08:44:54;;;;;;;;;;;;;;;17.30;23.22;99655.84;4467414;32;35091;-82
2022/04/12 08:47:22;;;;;;;;;;;;;;;16.84;24.84;99646.50;4453225;32;34032;-83
2022/04/12 08:49:50;;;;;;;;;;;;;;;15.84;26.25;99658.97;4453222;32;34758;-81
2022/04/12 08:52:17;;;;;;;;;;;;;;;17.02;25.14;99648.16;4453000;32;33678;-80
2022/04/12 08:54:44;;;;;;;;;;;;;;;17.42;23.44;99660.97;4467383;32;34847;-82
2022/04/12 08:57:12;;;;;;;;;;;;;;;17.36;23.65;99654.06;4453396;32;33796;-81
2022/04/12 08:59:41;;;;;;;;;;;;;;;17.22;24.82;99650.66;4466980;32;34180;-82
2022/04/12 09:02:08;;;;;;;;;;;;;;;16.90;25.42;99649.09;4467048;32;35275;-81
2022/04/12 09:04:36;;;;;;;;;;;;;;;16.36;24.78;99645.78;4453051;32;34639;-81
2022/04/12 09:07:07;;;;;;;;;;;;;;;16.15;24.78;99653.69;4466239;32;33476;-80
2022/04/12 09:09:34;;;;;;;;;;;;;;;16.77;24.15;99647.41;4458691;32;34600;-80
2022/04/12 09:12:03;;;;;;;;;;;;;;;16.65;24.77;99647.44;4460584;32;35336;-81
2022/04/12 09:14:36;;;;;;;;;;;;;;;17.25;23.67;99648.00;4463678;32;34138;-82
2022/04/12 09:17:04;;;;;;;;;;;;;;;17.25;23.36;99645.38;4466916;32;34257;-82
2022/04/12 09:19:44;;;;;;;;;;;;;;;17.00;24.26;99635.03;4467092;32;35087;-82
2022/04/12 09:22:11;;;;;;;;;;;;;;;17.21;23.85;99639.31;4467117;32;33828;-83
2022/04/12 09:24:45;;;;;;;;;;;;;;;16.80;24.22;99630.81;4467205;32;34314;-82
2022/04/12 09:27:13;;;;;;;;;;;;;;;16.30;24.35;99635.34;4466993;32;33285;-82
2022/04/12 09:29:50;;;;;;;;;;;;;;;16.66;23.93;99636.06;4452917;32;34596;-82
2022/04/12 09:32:21;;;;;;;;;;;;;;;16.51;24.20;99635.25;4452475;32;34268;-82
2022/04/12 09:34:48;;;;;;;;;;;;;;;17.11;24.00;99626.25;4466907;32;35280;-83
2022/04/12 09:37:19;;;;;;;;;;;;;;;17.46;23.62;99624.28;4466934;32;33590;-82
2022/04/12 09:39:51;;;;;;;;;;;;;;;16.93;23.96;99625.50;4466827;32;34009;-82
2022/04/12 09:42:19;;;;;;;;;;;;;;;16.20;24.68;99633.63;4466839;32;34262;-82
2022/04/12 09:44:46;;;;;;;;;;;;;;;16.77;24.03;99619.47;4452403;32;34401;-83
2022/04/12 09:47:14;;;;;;;;;;;;;;;16.78;24.73;99625.56;4452359;32;33521;-83
2022/04/12 09:49:42;;;;;;;;;;;;;;;17.54;23.17;99623.31;4466595;32;34247;-82
2022/04/12 09:52:10;;;;;;;;;;;;;;;18.36;22.58;99619.06;4452614;32;34220;-82
2022/04/12 09:54:37;;;;;;;;;;;;;;;18.76;22.24;99608.09;4466427;32;33835;-87
2022/04/12 09:57:04;;;;;;;;;;;;;;;18.80;23.37;99604.53;4466878;32;34301;-87
2022/04/12 09:59:45;;;;;;;;;;;;;;;18.85;22.93;99606.19;4466132;32;34995;-83
2022/04/12 10:02:13;;;;;;;;;;;;;;;18.56;22.92;99600.41;4468301;32;34573;-80
2022/04/12 10:04:42;;;;;;;;;;;;;;;17.44;23.37;99610.31;4454413;32;35211;-83
2022/04/12 10:07:09;;;;;;;;;;;;;;;16.73;24.42;99604.66;4453972;32;33121;-82
2022/04/12 10:09:37;;;;;;;;;;;;;;;16.98;25.06;99604.53;4454725;32;34373;-83
2022/04/12 10:12:05;;;;;;;;;;;;;;;16.59;25.04;99597.72;4468481;32;34526;-82
2022/04/12 10:14:32;;;;;;;;;;;;;;;16.60;25.00;99595.09;4453923;32;34380;-82
2022/04/12 10:16:59;;;;;;;;;;;;;;;16.90;23.83;99594.09;4454381;32;34407;-83
2022/04/12 10:19:27;;;;;;;;;;;;;;;17.20;23.92;99600.88;4454414;32;34184;-86
2022/04/12 10:21:54;;;;;;;;;;;;;;;17.90;23.52;99595.94;4454134;32;35076;-83
2022/04/12 10:24:22;;;;;;;;;;;;;;;18.59;24.48;99589.87;4468781;32;35133;-85
2022/04/12 10:26:49;;;;;;;;;;;;;;;19.35;22.33;99583.53;4454437;32;33981;-83
2022/04/12 10:29:16;;;;;;;;;;;;;;;17.80;22.85;99589.03;4454170;32;34083;-82
2022/04/12 10:32:00;;;;;;;;;;;;;;;17.30;23.78;99590.31;4468608;32;34354;-83
2022/04/12 10:35:00;;;;;;;;;;;;;;;18.62;22.32;99571.47;4468477;32;34775;-85
2022/04/12 10:37:27;;;;;;;;;;;;;;;19.40;22.34;99570.34;4468358;32;34403;-85
2022/04/12 10:40:14;;;;;;;;;;;;;;;18.40;22.89;99569.13;4468272;32;34467;-82
2022/04/12 10:42:49;;;;;;;;;;;;;;;16.71;25.12;99574.97;4467995;32;35107;-83
2022/04/12 10:45:16;;;;;;;;;;;;;;;17.35;24.92;99578.94;4468236;32;34347;-84
2022/04/12 10:47:43;;;;;;;;;;;;;;;18.27;23.61;99562.28;4454132;32;34408;-85
2022/04/12 10:50:12;;;;;;;;;;;;;;;19.00;22.71;99562.22;4468129;32;34156;-85
2022/04/12 10:52:44;;;;;;;;;;;;;;;20.15;22.40;99558.44;4468289;32;34661;-82
2022/04/12 10:55:12;;;;;;;;;;;;;;;19.28;21.91;99557.38;4468280;32;34604;-82
2022/04/12 10:57:42;;;;;;;;;;;;;;;18.73;22.40;99556.47;4468043;32;34299;-83
2022/04/12 11:00:28;;;;;;;;;;;;;;;19.91;22.08;99552.78;4454196;32;34261;-82
2022/04/12 11:02:56;;;;;;;;;;;;;;;20.64;21.74;99547.78;4454400;32;34829;-82
2022/04/12 11:05:33;;;;;;;;;;;;;;;20.59;20.19;99541.75;4468132;32;34482;-83
2022/04/12 11:08:00;;;;;;;;;;;;;;;21.01;20.50;99554.00;4468359;32;34235;-82
2022/04/12 11:10:27;;;;;;;;;;;;;;;19.14;22.44;99542.72;4454083;32;33879;-83
2022/04/12 11:13:08;;;;;;;;;;;;;;;19.63;23.17;99535.78;4467070;32;35206;-82
2022/04/12 11:15:37;;;;;;;;;;;;;;;19.06;22.26;99535.84;4450974;32;33852;-82
2022/04/12 11:18:04;;;;;;;;;;;;;;;19.99;21.78;99526.31;4452462;32;33551;-83
2022/04/12 11:20:31;;;;;;;;;;;;;;;19.69;21.78;99520.72;4452502;32;34001;-87
2022/04/12 11:22:59;;;;;;;;;;;;;;;20.10;21.49;99516.44;4451002;32;34230;-82
2022/04/12 11:25:27;;;;;;;;;;;;;;;20.17;22.87;99511.91;4451308;32;33844;-82
2022/04/12 11:27:55;;;;;;;;;;;;;;;20.11;21.87;99517.28;4452485;32;32926;-83
2022/04/12 11:30:23;;;;;;;;;;;;;;;20.29;21.75;99516.91;4451403;32;33704;-82
2022/04/12 11:32:52;;;;;;;;;;;;;;;19.76;22.13;99521.50;4452824;32;34143;-84
2022/04/12 11:35:19;;;;;;;;;;;;;;;18.93;22.90;99522.88;4452585;32;35167;-83
2022/04/12 11:37:47;;;;;;;;;;;;;;;18.74;23.52;99518.81;4451316;32;33841;-82
2022/04/12 11:40:15;;;;;;;;;;;;;;;18.75;22.92;99517.03;4452648;32;34152;-82
2022/04/12 11:42:43;;;;;;;;;;;;;;;19.92;21.68;99517.66;4452307;32;33922;-82
2022/04/12 11:45:13;;;;;;;;;;;;;;;19.90;21.32;99515.97;4452381;32;34167;-82
2022/04/12 11:47:44;;;;;;;;;;;;;;;19.83;21.99;99507.34;4452471;32;34459;-82
2022/04/12 11:50:15;;;;;;;;;;;;;;;19.85;22.10;99516.06;4450957;32;33753;-82
2022/04/12 11:52:43;;;;;;;;;;;;;;;21.07;21.14;99516.97;4451099;32;34343;-88
2022/04/12 11:55:11;;;;;;;;;;;;;;;19.93;21.33;99514.16;4450816;32;34308;-83
2022/04/12 11:57:41;;;;;;;;;;;;;;;18.73;23.67;99519.69;4452245;32;33675;-83
2022/04/12 12:00:09;;;;;;;;;;;;;;;18.41;23.73;99521.00;4451088;32;34315;-82
2022/04/12 12:02:38;;;;;;;;;;;;;;;19.07;23.39;99513.94;4451042;32;34479;-83
2022/04/12 12:05:07;;;;;;;;;;;;;;;18.75;23.72;99509.16;4452056;32;34102;-83
2022/04/12 12:07:36;;;;;;;;;;;;;;;18.24;23.48;99515.09;4451046;32;33135;-82
2022/04/12 12:10:05;;;;;;;;;;;;;;;18.69;22.65;99499.59;4451960;32;34244;-82
2022/04/12 12:12:37;;;;;;;;;;;;;;;20.17;21.81;99506.66;4450929;32;33953;-87
2022/04/12 12:15:12;;;;;;;;;;;;;;;20.36;21.02;99505.34;4455759;32;35317;-83
2022/04/12 12:17:39;;;;;;;;;;;;;;;20.80;20.74;99502.69;4453602;32;34269;-82
2022/04/12 12:20:07;;;;;;;;;;;;;;;20.96;20.83;99504.03;4467615;32;34949;-82
2022/04/12 12:22:38;;;;;;;;;;;;;;;20.24;21.18;99510.91;4453594;32;34081;-82
2022/04/12 12:25:05;;;;;;;;;;;;;;;19.67;22.05;99495.38;4452949;32;34246;-82
2022/04/12 12:27:34;;;;;;;;;;;;;;;20.47;23.60;99499.88;4467666;32;33806;-82
2022/04/12 12:30:09;;;;;;;;;;;;;;;19.95;22.05;99500.97;4467709;32;34317;-82
2022/04/12 12:32:37;;;;;;;;;;;;;;;20.77;21.22;99498.34;4467578;32;35192;-83
2022/04/12 12:35:08;;;;;;;;;;;;;;;20.73;21.73;99496.69;4467756;32;34282;-83
2022/04/12 12:37:36;;;;;;;;;;;;;;;19.39;22.26;99506.34;4467526;32;34653;-82
2022/04/12 12:40:05;;;;;;;;;;;;;;;20.54;21.24;99500.63;4467361;32;35051;-83
2022/04/12 12:42:37;;;;;;;;;;;;;;;20.98;20.75;99488.16;4453675;32;33994;-82
2022/04/12 12:45:11;;;;;;;;;;;;;;;21.16;21.11;99481.59;4453352;32;34511;-82
2022/04/12 12:47:41;;;;;;;;;;;;;;;21.54;21.64;99480.59;4467377;32;34408;-82
2022/04/12 12:50:12;;;;;;;;;;;;;;;21.86;20.00;99471.81;4467197;32;35160;-83
2022/04/12 12:52:40;;;;;;;;;;;;;;;22.39;19.44;99472.06;4467406;32;34182;-84
2022/04/12 12:55:08;;;;;;;;;;;;;;;20.93;20.82;99483.00;4467238;32;34619;-83
2022/04/12 12:57:36;;;;;;;;;;;;;;;20.10;21.31;99481.34;4467191;32;34509;-82